createdAt,value
2022-10-07T00:00:55.287Z,9.30
2022-10-07T00:03:57.009Z,9.30
2022-10-07T00:06:58.838Z,9.30
2022-10-07T00:10:00.436Z,9.30
2022-10-07T00:13:02.146Z,9.40
2022-10-07T00:16:09.263Z,9.20
2022-10-07T00:19:13.124Z,9.30
2022-10-07T00:22:14.738Z,9.30
2022-10-07T00:25:16.463Z,9.20
2022-10-07T00:28:18.152Z,9.20
2022-10-07T00:31:24.836Z,9.20
2022-10-07T00:34:32.675Z,9.20
2022-10-07T00:37:34.298Z,9.10
2022-10-07T00:40:35.871Z,9.10
2022-10-07T00:43:37.512Z,9.10
2022-10-07T00:46:40.631Z,9.10
2022-10-07T00:49:54.131Z,9.10
2022-10-07T00:52:59.566Z,9.10
2022-10-07T00:56:02.909Z,9.10
2022-10-07T00:59:05.439Z,9.10
2022-10-07T01:02:08.391Z,9.00
2022-10-07T01:05:14.074Z,9.00
2022-10-07T01:08:16.893Z,9.00
2022-10-07T01:11:42.407Z,8.90
2022-10-07T01:14:47.028Z,9.00
2022-10-07T01:18:26.619Z,9.00
2022-10-07T01:21:46.851Z,9.00
2022-10-07T01:25:26.783Z,8.90
2022-10-07T01:28:38.105Z,8.90
2022-10-07T01:31:47.532Z,8.80
2022-10-07T01:34:52.595Z,8.80
2022-10-07T01:38:00.108Z,8.80
2022-10-07T01:41:11.037Z,8.80
2022-10-07T01:44:13.727Z,8.80
2022-10-07T01:47:15.768Z,8.80
2022-10-07T01:50:20.749Z,8.70
2022-10-07T01:53:28.279Z,8.70
2022-10-07T01:56:50.887Z,8.70
2022-10-07T02:00:11.089Z,8.80
2022-10-07T02:03:28.827Z,8.80
2022-10-07T02:06:52.825Z,8.80
2022-10-07T02:10:34.252Z,8.80
2022-10-07T02:13:35.791Z,8.80
2022-10-07T02:16:41.888Z,8.90
2022-10-07T02:19:47.979Z,8.70
2022-10-07T02:22:51.068Z,8.80
2022-10-07T02:25:57.218Z,8.70
2022-10-07T02:29:01.876Z,9.10
2022-10-07T02:32:08.088Z,8.60
2022-10-07T02:35:18.752Z,8.60
2022-10-07T02:38:23.436Z,8.60
2022-10-07T02:41:46.733Z,8.60
2022-10-07T02:45:03.254Z,8.50
2022-10-07T02:48:15.863Z,8.50
2022-10-07T02:51:21.367Z,8.50
2022-10-07T02:54:29.540Z,8.40
2022-10-07T02:57:50.724Z,8.60
2022-10-07T03:00:57.977Z,8.60
2022-10-07T03:04:00.083Z,8.40
2022-10-07T03:07:01.913Z,8.40
2022-10-07T03:10:04.503Z,8.40
2022-10-07T03:13:06.128Z,8.40
2022-10-07T03:16:07.927Z,8.40
2022-10-07T03:19:10.759Z,8.30
2022-10-07T03:22:12.395Z,8.40
2022-10-07T03:25:15.105Z,8.40
2022-10-07T03:28:16.781Z,8.40
2022-10-07T03:31:18.548Z,8.30
2022-10-07T03:34:20.335Z,8.40
2022-10-07T03:37:22.874Z,8.40
2022-10-07T03:40:24.508Z,8.40
2022-10-07T03:43:26.240Z,8.40
2022-10-07T03:46:27.939Z,8.30
2022-10-07T03:49:37.673Z,8.30
2022-10-07T03:52:39.296Z,8.30
2022-10-07T03:55:40.909Z,8.30
2022-10-07T03:58:42.579Z,8.30
2022-10-07T04:01:44.261Z,8.30
2022-10-07T04:04:46.484Z,8.30
2022-10-07T04:07:49.863Z,8.30
2022-10-07T04:10:51.737Z,8.30
2022-10-07T04:13:53.417Z,8.30
2022-10-07T04:16:56.702Z,8.30
2022-10-07T04:19:58.522Z,8.30
2022-10-07T04:23:00.132Z,8.30
2022-10-07T04:26:01.808Z,8.30
2022-10-07T04:29:03.862Z,8.20
2022-10-07T04:32:05.613Z,8.20
2022-10-07T04:35:07.546Z,8.20
2022-10-07T04:38:10.883Z,8.10
2022-10-07T04:41:12.529Z,8.10
2022-10-07T04:44:14.139Z,8.10
2022-10-07T04:47:15.815Z,8.10
2022-10-07T04:50:18.176Z,8.00
2022-10-07T04:53:20.795Z,8.00
2022-10-07T04:56:25.315Z,8.00
2022-10-07T04:59:29.792Z,7.90
2022-10-07T05:02:31.904Z,7.90
2022-10-07T05:05:34.413Z,7.90
2022-10-07T05:08:37.242Z,7.90
2022-10-07T05:11:38.849Z,7.80
2022-10-07T05:14:43.077Z,7.80
2022-10-07T05:17:44.925Z,7.80
2022-10-07T05:20:48.301Z,7.80
2022-10-07T05:23:49.922Z,7.70
2022-10-07T05:26:54.168Z,7.70
2022-10-07T05:29:55.781Z,7.80
2022-10-07T05:32:57.394Z,7.70
2022-10-07T05:35:59.752Z,7.80
2022-10-07T05:39:01.356Z,7.80
2022-10-07T05:42:03.135Z,7.80
2022-10-07T05:45:05.637Z,7.80
2022-10-07T05:48:39.932Z,7.80
2022-10-07T05:51:41.917Z,7.90
2022-10-07T05:54:43.521Z,8.00
2022-10-07T05:57:48.859Z,8.10
2022-10-07T06:00:55.814Z,8.20
2022-10-07T06:03:57.866Z,8.40
2022-10-07T06:06:59.602Z,8.60
2022-10-07T06:10:21.474Z,8.80
2022-10-07T06:13:24.014Z,9.10
2022-10-07T06:16:26.659Z,9.60
2022-10-07T06:19:28.297Z,10.00
2022-10-07T06:22:29.897Z,10.30
2022-10-07T06:25:31.532Z,10.50
2022-10-07T06:28:40.645Z,10.50
2022-10-07T06:31:42.325Z,10.60
2022-10-07T06:34:45.070Z,10.60
2022-10-07T06:37:47.289Z,10.70
2022-10-07T06:41:02.972Z,10.80
2022-10-07T06:44:04.580Z,11.00
2022-10-07T06:47:11.635Z,11.20
2022-10-07T06:50:27.228Z,11.40
2022-10-07T06:53:29.208Z,11.70
2022-10-07T06:56:30.818Z,11.90
2022-10-07T06:59:32.417Z,12.10
2022-10-07T07:02:34.124Z,12.30
2022-10-07T07:05:41.498Z,12.50
2022-10-07T07:08:50.092Z,12.80
2022-10-07T07:11:54.213Z,13.00
2022-10-07T07:15:00.140Z,13.30
2022-10-07T07:18:02.900Z,13.50
2022-10-07T07:21:07.608Z,13.80
2022-10-07T07:24:09.686Z,14.00
2022-10-07T07:27:12.625Z,14.30
2022-10-07T07:30:14.465Z,14.80
2022-10-07T07:33:16.065Z,14.80
2022-10-07T07:36:18.673Z,14.90
2022-10-07T07:42:23.457Z,15.20
2022-10-07T07:45:25.051Z,15.40
2022-10-07T07:48:27.228Z,15.60
2022-10-07T07:51:28.884Z,15.60
2022-10-07T07:54:30.886Z,15.90
2022-10-07T07:57:34.513Z,16.10
2022-10-07T08:00:36.296Z,16.40
2022-10-07T08:03:38.667Z,16.50
2022-10-07T08:06:40.626Z,16.70
2022-10-07T08:09:42.838Z,17.20
2022-10-07T08:12:44.430Z,17.20
2022-10-07T08:15:46.118Z,17.40
2022-10-07T08:18:50.529Z,17.60
2022-10-07T08:21:53.103Z,17.80
2022-10-07T08:24:56.564Z,17.90
2022-10-07T08:27:58.675Z,18.00
2022-10-07T08:31:05.982Z,18.20
2022-10-07T08:34:07.990Z,18.20
2022-10-07T08:37:09.620Z,18.30
2022-10-07T08:40:16.656Z,18.40
2022-10-07T08:43:21.728Z,18.60
2022-10-07T08:46:34.359Z,18.90
2022-10-07T08:50:04.289Z,18.90
2022-10-07T08:53:08.722Z,18.90
2022-10-07T08:56:23.141Z,19.00
2022-10-07T08:59:32.852Z,18.70
2022-10-07T09:02:53.553Z,18.70
2022-10-07T09:05:57.012Z,18.70
2022-10-07T09:09:04.426Z,18.70
2022-10-07T09:12:13.897Z,18.80
2022-10-07T09:15:27.371Z,19.00
2022-10-07T09:18:38.176Z,19.20
2022-10-07T09:21:44.852Z,19.20
2022-10-07T09:24:49.073Z,19.40
2022-10-07T09:27:52.148Z,19.40
2022-10-07T09:30:53.996Z,19.40
2022-10-07T09:33:56.093Z,19.10
2022-10-07T09:37:19.747Z,19.00
2022-10-07T09:40:34.165Z,18.70
2022-10-07T09:43:37.085Z,18.70
2022-10-07T09:46:59.406Z,18.80
2022-10-07T09:50:01.025Z,18.80
2022-10-07T09:53:04.482Z,18.90
2022-10-07T09:56:06.137Z,19.00
2022-10-07T09:59:21.319Z,19.00
2022-10-07T10:02:26.113Z,18.80
2022-10-07T10:05:37.479Z,18.80
2022-10-07T10:08:42.448Z,18.70
2022-10-07T10:12:14.878Z,18.70
2022-10-07T10:15:39.410Z,18.70
2022-10-07T10:18:53.144Z,18.60
2022-10-07T10:21:56.899Z,18.50
2022-10-07T10:25:17.265Z,18.70
2022-10-07T10:28:42.908Z,18.60
2022-10-07T10:32:13.102Z,18.40
2022-10-07T10:35:36.791Z,18.40
2022-10-07T10:39:04.298Z,18.50
2022-10-07T10:42:14.997Z,18.60
2022-10-07T10:45:36.832Z,18.60
2022-10-07T10:48:51.704Z,18.70
2022-10-07T10:52:02.775Z,18.50
2022-10-07T10:55:33.144Z,18.50
2022-10-07T10:59:04.228Z,18.60
2022-10-07T11:02:26.756Z,18.40
2022-10-07T11:05:35.576Z,18.30
2022-10-07T11:09:20.540Z,18.30
2022-10-07T11:12:50.800Z,18.20
2022-10-07T11:16:01.648Z,18.10
2022-10-07T11:19:15.815Z,18.00
2022-10-07T11:22:32.308Z,18.20
2022-10-07T11:25:44.228Z,18.10
2022-10-07T11:28:48.625Z,18.00
2022-10-07T11:31:57.633Z,17.90
2022-10-07T11:35:25.471Z,18.00
2022-10-07T11:38:33.296Z,17.90
2022-10-07T11:41:47.220Z,18.00
2022-10-07T11:45:03.289Z,17.60
2022-10-07T11:48:19.585Z,17.70
2022-10-07T11:51:38.376Z,17.60
2022-10-07T11:54:49.308Z,17.50
2022-10-07T11:57:55.731Z,17.40
2022-10-07T12:01:25.390Z,17.30
2022-10-07T12:04:36.961Z,17.30
2022-10-07T12:07:55.996Z,17.50
2022-10-07T12:11:12.907Z,17.50
2022-10-07T12:14:32.714Z,17.30
2022-10-07T12:17:34.836Z,17.30
2022-10-07T12:20:50.459Z,17.10
2022-10-07T12:24:13.539Z,17.30
2022-10-07T12:27:28.901Z,17.30
2022-10-07T12:30:42.402Z,17.20
2022-10-07T12:33:44.411Z,17.20
2022-10-07T12:36:45.997Z,17.20
2022-10-07T12:39:48.337Z,17.30
2022-10-07T12:43:17.773Z,16.90
2022-10-07T12:46:21.542Z,16.80
2022-10-07T12:49:36.101Z,16.90
2022-10-07T12:52:53.763Z,16.70
2022-10-07T12:55:56.584Z,16.70
2022-10-07T12:59:48.188Z,16.80
2022-10-07T13:03:28.430Z,16.70
2022-10-07T13:07:28.051Z,16.70
2022-10-07T13:10:46.928Z,16.80
2022-10-07T13:13:52.068Z,16.70
2022-10-07T13:17:28.103Z,16.70
2022-10-07T13:20:43.972Z,16.60
2022-10-07T13:23:55.112Z,16.50
2022-10-07T13:26:57.547Z,16.50
2022-10-07T13:30:01.514Z,16.80
2022-10-07T13:33:24.649Z,16.50
2022-10-07T13:36:31.480Z,16.40
2022-10-07T13:39:33.089Z,16.50
2022-10-07T13:42:35.196Z,16.40
2022-10-07T13:45:45.742Z,16.60
2022-10-07T13:48:48.286Z,16.50
2022-10-07T13:51:52.914Z,16.70
2022-10-07T13:54:57.724Z,16.40
2022-10-07T13:58:02.893Z,16.40
2022-10-07T14:01:05.856Z,16.40
2022-10-07T14:04:25.327Z,16.30
2022-10-07T14:07:29.065Z,16.30
2022-10-07T14:10:33.148Z,16.40
2022-10-07T14:13:37.673Z,16.30
2022-10-07T14:16:39.998Z,16.30
2022-10-07T14:19:41.739Z,16.30
2022-10-07T14:23:08.920Z,16.50
2022-10-07T14:26:11.579Z,16.30
2022-10-07T14:29:35.251Z,16.30
2022-10-07T14:32:55.443Z,16.30
2022-10-07T14:36:11.232Z,16.30
2022-10-07T14:39:26.819Z,16.30
2022-10-07T14:42:35.857Z,16.30
2022-10-07T14:45:37.430Z,16.20
2022-10-07T14:48:39.112Z,16.30
2022-10-07T14:51:43.252Z,16.60
2022-10-07T14:54:44.962Z,16.20
2022-10-07T14:57:47.666Z,16.60
2022-10-07T15:00:49.497Z,16.60
2022-10-07T15:03:51.239Z,16.60
2022-10-07T15:06:52.883Z,16.60
2022-10-07T15:10:04.393Z,16.60
2022-10-07T15:13:08.720Z,16.20
2022-10-07T15:16:16.271Z,16.40
2022-10-07T15:19:19.109Z,16.30
2022-10-07T15:22:20.782Z,16.30
2022-10-07T15:25:22.664Z,16.30
2022-10-07T15:28:24.550Z,16.20
2022-10-07T15:31:29.124Z,16.60
2022-10-07T15:34:30.953Z,16.30
2022-10-07T15:37:33.489Z,16.30
2022-10-07T15:40:56.276Z,16.60
2022-10-07T15:43:59.224Z,16.10
2022-10-07T15:48:00.297Z,16.20
2022-10-07T15:51:04.338Z,16.00
2022-10-07T15:54:06.863Z,16.00
2022-10-07T15:57:08.468Z,15.90
2022-10-07T16:00:24.360Z,15.90
2022-10-07T16:03:27.924Z,16.00
2022-10-07T16:06:32.920Z,15.90
2022-10-07T16:09:34.584Z,15.90
2022-10-07T16:12:36.176Z,15.70
2022-10-07T16:15:37.864Z,16.00
2022-10-07T16:18:41.681Z,15.70
2022-10-07T16:21:43.576Z,15.90
2022-10-07T16:24:45.530Z,15.60
2022-10-07T16:28:05.626Z,15.50
2022-10-07T16:31:07.315Z,15.80
2022-10-07T16:34:10.985Z,15.40
2022-10-07T16:37:14.014Z,15.30
2022-10-07T16:40:15.692Z,15.30
2022-10-07T16:43:17.302Z,15.20
2022-10-07T16:46:20.642Z,15.20
2022-10-07T16:49:23.440Z,15.10
2022-10-07T16:52:25.457Z,15.20
2022-10-07T16:55:27.088Z,15.00
2022-10-07T16:58:28.677Z,15.30
2022-10-07T17:01:30.774Z,14.90
2022-10-07T17:04:32.468Z,14.80
2022-10-07T17:07:34.170Z,14.80
2022-10-07T17:10:36.134Z,15.00
2022-10-07T17:13:38.053Z,14.70
2022-10-07T17:16:42.767Z,14.80
2022-10-07T17:19:44.699Z,14.60
2022-10-07T17:22:46.899Z,14.70
2022-10-07T17:25:48.521Z,14.80
2022-10-07T17:28:50.339Z,14.80
2022-10-07T17:32:02.966Z,14.60
2022-10-07T17:35:04.934Z,14.40
2022-10-07T17:38:07.282Z,14.30
2022-10-07T17:41:13.801Z,14.30
2022-10-07T17:44:15.671Z,14.50
2022-10-07T17:47:17.548Z,14.30
2022-10-07T17:50:19.173Z,14.30
2022-10-07T17:53:23.076Z,14.30
2022-10-07T17:56:28.858Z,14.30
2022-10-07T17:59:30.512Z,14.70
2022-10-07T18:02:32.754Z,14.40
2022-10-07T18:05:34.563Z,14.40
2022-10-07T18:08:39.879Z,14.00
2022-10-07T18:11:59.932Z,13.90
2022-10-07T18:15:19.972Z,14.10
2022-10-07T18:18:21.575Z,14.00
2022-10-07T18:21:24.587Z,13.90
2022-10-07T18:24:28.580Z,13.90
2022-10-07T18:27:30.537Z,13.80
2022-10-07T18:30:32.137Z,13.80
2022-10-07T18:33:35.601Z,14.30
2022-10-07T18:37:03.508Z,13.90
2022-10-07T18:40:05.797Z,13.70
2022-10-07T18:43:07.440Z,13.70
2022-10-07T18:46:17.370Z,13.90
2022-10-07T18:49:19.100Z,13.60
2022-10-07T18:52:20.716Z,13.60
2022-10-07T18:55:22.354Z,13.50
2022-10-07T18:58:23.938Z,13.50
2022-10-07T19:01:29.942Z,13.80
2022-10-07T19:04:32.484Z,13.60
2022-10-07T19:07:34.094Z,14.40
2022-10-07T19:10:42.808Z,13.70
2022-10-07T19:13:49.915Z,13.80
2022-10-07T19:16:52.043Z,13.40
2022-10-07T19:19:55.674Z,13.40
2022-10-07T19:22:57.833Z,13.60
2022-10-07T19:25:59.920Z,13.40
2022-10-07T19:29:02.960Z,13.40
2022-10-07T19:32:08.647Z,13.40
2022-10-07T19:35:10.688Z,13.30
2022-10-07T19:38:13.280Z,13.30
2022-10-07T19:41:16.085Z,13.40
2022-10-07T19:44:18.327Z,13.50
2022-10-07T19:47:20.157Z,13.30
2022-10-07T19:50:24.953Z,13.30
2022-10-07T19:53:33.672Z,13.40
2022-10-07T19:56:36.155Z,13.30
2022-10-07T19:59:37.829Z,13.30
2022-10-07T20:02:39.530Z,13.20
2022-10-07T20:05:53.052Z,13.10
2022-10-07T20:08:55.805Z,13.40
2022-10-07T20:11:57.413Z,13.00
2022-10-07T20:14:59.024Z,13.10
2022-10-07T20:18:03.523Z,13.50
2022-10-07T20:21:15.802Z,13.00
2022-10-07T20:24:17.772Z,13.00
2022-10-07T20:27:19.931Z,13.00
2022-10-07T20:30:21.973Z,13.30
2022-10-07T20:33:23.814Z,12.90
2022-10-07T20:36:30.996Z,13.10
2022-10-07T20:39:51.451Z,12.90
2022-10-07T20:42:53.591Z,12.90
2022-10-07T20:45:58.925Z,12.90
2022-10-07T20:49:00.760Z,12.90
2022-10-07T20:52:07.425Z,12.90
2022-10-07T20:55:11.485Z,12.90
2022-10-07T20:58:15.717Z,12.90
2022-10-07T21:01:17.431Z,13.00
2022-10-07T21:04:20.046Z,12.90
2022-10-07T21:07:21.990Z,12.90
2022-10-07T21:10:24.685Z,13.00
2022-10-07T21:13:26.787Z,12.90
2022-10-07T21:16:30.347Z,12.90
2022-10-07T21:19:32.679Z,12.70
2022-10-07T21:22:35.071Z,12.80
2022-10-07T21:25:36.644Z,12.80
2022-10-07T21:28:39.396Z,12.80
2022-10-07T21:31:42.339Z,12.80
2022-10-07T21:34:43.908Z,12.70
2022-10-07T21:37:46.202Z,12.70
2022-10-07T21:40:47.790Z,12.60
2022-10-07T21:43:50.949Z,13.10
2022-10-07T21:46:52.639Z,12.70
2022-10-07T21:49:56.862Z,12.60
2022-10-07T21:52:58.460Z,13.00
2022-10-07T21:56:09.609Z,12.70
2022-10-07T21:59:11.243Z,12.70
2022-10-07T22:02:13.743Z,12.70
2022-10-07T22:05:15.793Z,12.80
2022-10-07T22:08:36.322Z,12.70
2022-10-07T22:11:38.328Z,13.00
2022-10-07T22:14:39.965Z,12.80
2022-10-07T22:17:41.560Z,12.80
2022-10-07T22:20:44.164Z,12.70
2022-10-07T22:23:50.461Z,12.80
2022-10-07T22:26:52.195Z,12.60
2022-10-07T22:29:54.212Z,12.50
2022-10-07T22:32:55.800Z,12.60
2022-10-07T22:35:57.387Z,12.50
2022-10-07T22:38:59.683Z,12.50
2022-10-07T22:42:02.814Z,12.50
2022-10-07T22:45:06.257Z,12.40
2022-10-07T22:48:07.848Z,12.50
2022-10-07T22:51:12.103Z,12.40
2022-10-07T22:54:14.068Z,12.40
2022-10-07T22:57:16.531Z,12.50
2022-10-07T23:00:18.164Z,12.40
2022-10-07T23:03:19.809Z,12.50
2022-10-07T23:06:21.577Z,12.80
2022-10-07T23:09:23.253Z,12.40
2022-10-07T23:12:27.980Z,12.40
2022-10-07T23:15:30.350Z,12.30
2022-10-07T23:18:32.155Z,12.30
2022-10-07T23:21:34.961Z,12.40
2022-10-07T23:24:36.589Z,12.30
2022-10-07T23:27:38.738Z,12.30
2022-10-07T23:30:40.313Z,12.30
2022-10-07T23:33:42.592Z,12.40
2022-10-07T23:36:44.272Z,12.30
2022-10-07T23:39:45.856Z,12.30
2022-10-07T23:42:55.752Z,12.30
2022-10-07T23:45:57.511Z,12.40
2022-10-07T23:48:59.325Z,12.60
2022-10-07T23:52:03.079Z,12.20
2022-10-07T23:55:05.212Z,12.50
2022-10-07T23:58:06.866Z,12.20
